Latest Weather Observations for Gingin Airport

IDW60801

Issued at 7:03 pm WST Saturday 19 August 2017 (issued every 30 minutes, with the page automatically refreshed every 10 minutes)

About weather observations | Map of weather stations | Latest weather observations for WA | Other Formats
Station Details ID: 009178 Name: GINGIN AERO Lat: -31.46 Lon: 115.86 Height: 73.0 m
Data from the previous 72 hours. | See also: Recent months at Gingin Airport
Date/Time
WST
Temp
°C
App
Temp
°C
Dew
Point
°C
Rel
Hum
%
Delta-T
°C
Wind Press
QNH
hPa
Press
MSL
hPa
Rain since
9am
mm
Dir  Spd
km/h
Gust
km/h
Spd
kts
Gust
kts
19/07:00pm 11.8 8.8 9.4 85 1.2 SW 15 19 8 10 1019.4 1019.4 2.4
19/06:30pm 11.9 9.7 9.5 85 1.2 SW 11 13 6 7 1018.9 1018.9 2.4
19/06:00pm 12.3 10.6 10.0 86 1.2 WSW 9 15 5 8 1018.5 1018.5 2.4
19/05:30pm 12.3 10.6 9.7 84 1.3 SSW 9 11 5 6 1018.0 1018.0 2.4
19/05:00pm 14.1 9.2 8.5 69 2.8 WSW 24 35 13 19 1017.9 1017.9 1.8
19/04:30pm 15.0 9.5 7.5 61 3.7 WSW 26 35 14 19 1017.6 1017.6 1.8
19/04:00pm 15.8 10.0 8.1 60 3.9 WSW 28 37 15 20 1017.3 1017.3 1.8
19/03:30pm 16.4 10.4 7.1 54 4.6 WSW 28 35 15 19 1017.0 1017.1 1.8
19/03:00pm 16.1 10.2 6.0 51 4.9 W 26 37 14 20 1016.8 1016.9 1.8
19/02:30pm 16.2 9.3 6.6 53 4.7 W 32 41 17 22 1016.7 1016.8 1.8
19/02:00pm 16.3 9.8 8.0 58 4.2 W 32 41 17 22 1016.6 1016.7 1.8
19/01:30pm 16.6 9.7 6.4 51 5.0 WSW 32 41 17 22 1016.4 1016.5 1.8
19/01:00pm 16.1 10.6 7.6 57 4.3 W 26 35 14 19 1016.6 1016.7 1.8
19/12:30pm 16.7 11.4 8.4 58 4.2 WSW 26 33 14 18 1016.8 1016.9 1.8
19/12:17pm 16.4 12.4 8.9 61 3.9 WSW 20 39 11 21 1016.9 1017.0 1.8
19/12:00pm 15.4 14.2 10.2 71 2.7 WSW 7 20 4 11 1017.0 1017.1 1.8
19/11:30am 14.2 12.6 10.2 77 2.1 SE 9 15 5 8 1017.3 1017.3 1.8
19/11:00am 13.7 11.3 10.1 79 1.9 NNW 13 19 7 10 1017.5 1017.5 1.8
19/10:30am 13.9 12.2 9.7 76 2.2 NNW 9 13 5 7 1017.5 1017.5 1.6
19/10:00am 12.8 11.3 10.5 86 1.2 NNW 9 13 5 7 1017.5 1017.5 1.6
19/09:30am 11.9 9.6 10.6 92 0.7 NW 13 17 7 9 1017.6 1017.6 1.6
19/09:00am 11.3 8.9 10.0 92 0.7 N 13 17 7 9 1017.3 1017.3 4.0
19/08:30am 11.1 8.0 10.2 94 0.5 WNW 17 26 9 14 1017.7 1017.7 3.8
19/08:00am 10.6 9.3 9.8 95 0.4 NNE 7 13 4 7 1016.8 1016.9 3.4
19/07:30am 10.1 8.8 9.3 95 0.4 N 6 9 3 5 1016.4 1016.5 3.4
19/07:00am 10.4 8.3 9.6 95 0.4 N 11 15 6 8 1016.2 1016.3 3.4
19/06:30am 10.6 8.5 9.8 95 0.4 N 11 15 6 8 1015.8 1015.9 3.2
19/06:00am 10.7 8.3 9.9 95 0.4 NNW 13 20 7 11 1015.8 1015.9 3.0
19/05:30am 10.6 8.2 10.0 96 0.3 N 13 19 7 10 1015.5 1015.5 2.6
19/05:00am 10.6 8.9 9.8 95 0.4 N 9 13 5 7 1015.2 1015.2 2.2
19/04:30am 10.7 8.6 9.9 95 0.4 N 11 17 6 9 1015.0 1015.0 1.8
19/04:00am 10.6 8.5 9.8 95 0.4 N 11 13 6 7 1015.0 1015.0 0.0
19/03:30am 10.4 8.6 9.6 95 0.4 N 9 13 5 7 1015.1 1015.1 0.0
19/03:00am 10.3 8.5 9.4 94 0.4 N 9 11 5 6 1015.1 1015.1 0.0
19/02:30am 10.5 9.1 9.6 94 0.5 NNW 7 9 4 5 1015.3 1015.3 0.0
19/02:00am 10.3 8.4 9.2 93 0.5 NW 9 11 5 6 1015.5 1015.5 0.0
19/01:30am 10.3 8.8 9.2 93 0.5 N 7 9 4 5 1015.3 1015.3 0.0
19/01:00am 10.5 8.7 9.3 92 0.6 NE 9 11 5 6 1015.1 1015.1 0.0
19/12:30am 10.7 9.5 9.6 93 0.6 WNW 6 7 3 4 1015.9 1016.0 0.0
19/12:00am 10.0 8.0 8.8 92 0.6 NNW 9 11 5 6 1016.0 1016.1 0.0
 
Date/Time
WST
Temp
°C
App
Temp
°C
Dew
Point
°C
Rel
Hum
%
Delta-T
°C
Wind Press
QNH
hPa
Press
MSL
hPa
Rain since
9am
mm
Dir  Spd
km/h
Gust
km/h
Spd
kts
Gust
kts
18/11:30pm 10.4 9.4 9.0 91 0.7 WNW 4 7 2 4 1015.8 1015.9 0.0
18/11:00pm 11.3 10.2 9.9 91 0.7 WNW 6 7 3 4 1016.1 1016.2 0.0
18/10:30pm 11.3 9.9 9.7 90 0.8 WNW 7 9 4 5 1016.3 1016.4 0.0
18/10:00pm 11.6 9.9 9.9 89 0.9 WNW 9 9 5 5 1016.2 1016.3 0.0
18/09:30pm 12.1 11.0 10.0 87 1.1 WSW 6 11 3 6 1016.4 1016.5 0.0
18/09:00pm 12.4 10.8 10.3 87 1.1 SSW 9 15 5 8 1016.4 1016.5 0.0
18/08:30pm 12.1 11.1 10.2 88 1.0 SSW 6 9 3 5 1016.5 1016.6 0.0
18/08:00pm 11.5 10.3 9.4 87 1.1 WSW 6 9 3 5 1016.3 1016.4 0.0
18/07:30pm 11.8 10.6 9.5 86 1.2 WSW 6 7 3 4 1016.3 1016.4 0.0
18/07:00pm 12.1 9.9 9.5 84 1.3 WSW 11 13 6 7 1015.8 1015.9 0.0
18/06:30pm 13.5 10.9 9.4 76 2.1 W 13 17 7 9 1015.6 1015.6 0.0
18/06:00pm 14.3 11.4 8.0 66 3.1 W 13 15 7 8 1015.3 1015.3 0.0
18/05:30pm 15.6 12.0 8.4 62 3.7 W 17 24 9 13 1014.7 1014.7 0.0
18/05:00pm 17.5 13.9 8.4 55 4.7 W 17 26 9 14 1014.2 1014.2 0.0
18/04:30pm 18.4 13.9 6.3 45 6.0 W 19 24 10 13 1014.0 1014.0 0.0
18/04:00pm 18.7 13.7 4.5 39 6.8 W 20 32 11 17 1014.0 1014.0 0.0
18/03:30pm 19.2 15.1 6.3 43 6.4 W 17 24 9 13 1014.1 1014.1 0.0
18/03:00pm 19.4 15.0 7.2 45 6.2 W 20 28 11 15 1013.9 1013.9 0.0
18/02:30pm 20.4 15.3 4.0 34 7.9 NW 20 30 11 16 1013.9 1013.9 0.0
18/02:00pm 19.7 15.3 4.6 37 7.3 NW 17 28 9 15 1013.9 1013.9 0.0
18/01:30pm 19.8 16.1 4.3 36 7.5 NW 13 17 7 9 1014.1 1014.1 0.0
18/01:00pm 19.5 15.0 4.0 36 7.4 N 17 30 9 16 1014.5 1014.5 0.0
18/12:30pm 19.2 14.9 3.4 35 7.4 NNW 15 24 8 13 1015.2 1015.2 0.0
18/12:00pm 19.1 14.3 2.5 33 7.7 N 17 24 9 13 1015.9 1016.0 0.0
18/11:30am 18.7 14.0 2.9 35 7.3 NNW 17 24 9 13 1016.4 1016.5 0.0
18/11:00am 17.9 13.3 1.4 33 7.4 N 15 22 8 12 1016.9 1017.0 0.0
18/10:30am 16.5 11.8 3.2 41 6.1 N 17 24 9 13 1017.3 1017.3 0.0
18/10:00am 15.9 11.2 3.4 43 5.7 NNE 17 22 9 12 1017.5 1017.5 0.0
18/09:30am 14.8 9.7 3.3 46 5.2 NNE 19 24 10 13 1017.7 1017.7 0.0
18/09:00am 13.8 9.1 3.3 49 4.7 NNE 17 22 9 12 1017.6 1017.6 0.0
18/08:30am 12.1 6.8 2.8 53 4.1 NNE 20 26 11 14 1017.6 1017.6 0.0
18/08:00am 10.8 5.5 2.9 58 3.4 NNE 20 28 11 15 1017.4 1017.4 0.0
18/07:30am 8.9 3.7 2.7 65 2.6 NNE 19 22 10 12 1017.4 1017.4 0.0
18/07:00am 7.6 3.2 2.9 72 2.0 NNE 15 19 8 10 1017.2 1017.2 0.0
18/06:30am 7.4 2.7 3.3 75 1.7 NNE 17 20 9 11 1017.2 1017.2 0.0
18/06:00am 6.2 2.2 3.0 80 1.3 NNE 13 17 7 9 1017.2 1017.2 0.0
18/05:30am 5.2 2.3 2.7 84 1.0 N 7 9 4 5 1017.2 1017.2 0.0
18/05:00am 5.1 1.8 2.6 84 1.0 NNE 9 11 5 6 1017.2 1017.2 0.0
18/04:30am 6.4 3.6 3.0 79 1.4 N 7 11 4 6 1017.2 1017.2 0.0
18/04:00am 6.4 2.8 3.2 80 1.3 NNE 11 11 6 6 1017.0 1017.1 0.0
18/03:30am 6.1 2.2 3.3 82 1.2 NNE 13 15 7 8 1017.3 1017.3 0.0
18/03:00am 7.2 4.1 3.8 79 1.5 NNE 9 11 5 6 1017.6 1017.6 0.0
18/02:30am 8.2 4.6 4.8 79 1.5 NNE 13 15 7 8 1017.8 1017.8 0.0
18/02:00am 7.1 3.7 4.2 82 1.3 NE 11 13 6 7 1017.9 1017.9 0.0
18/01:30am 7.5 3.8 4.6 82 1.3 NE 13 17 7 9 1018.1 1018.1 0.0
18/01:00am 6.5 3.5 4.0 84 1.1 NNE 9 13 5 7 1018.2 1018.2 0.0
18/12:30am 7.1 3.8 4.6 84 1.1 NE 11 13 6 7 1018.2 1018.2 0.0
18/12:00am 8.2 6.0 5.5 83 1.2 NE 6 9 3 5 1018.3 1018.3 0.0
 
Date/Time
WST
Temp
°C
App
Temp
°C
Dew
Point
°C
Rel
Hum
%
Delta-T
°C
Wind Press
QNH
hPa
Press
MSL
hPa
Rain since
9am
mm
Dir  Spd
km/h
Gust
km/h
Spd
kts
Gust
kts
17/11:30pm 8.3 5.9 5.1 80 1.4 NE 7 9 4 5 1018.5 1018.5 0.0
17/11:00pm 9.0 6.7 5.6 79 1.5 NNE 7 9 4 5 1018.7 1018.7 0.0
17/10:30pm 9.2 6.0 5.0 75 1.9 N 11 13 6 7 1018.8 1018.8 0.0
17/10:00pm 10.0 6.9 5.6 74 2.0 N 11 13 6 7 1019.0 1019.0 0.0
17/09:30pm 9.9 6.9 6.1 77 1.8 N 11 13 6 7 1019.0 1019.0 0.0
17/09:00pm 9.7 7.1 6.1 78 1.7 N 9 11 5 6 1019.0 1019.0 0.0
17/08:30pm 9.5 6.9 6.0 79 1.6 N 9 13 5 7 1018.7 1018.7 0.0
17/08:00pm 9.2 6.2 5.8 79 1.6 NNE 11 15 6 8 1018.7 1018.7 0.0
17/07:30pm 10.0 7.4 6.2 77 1.8 NNE 9 11 5 6 1018.6 1018.6 0.0
17/07:00pm 10.5 7.5 5.9 73 2.1 N 11 11 6 6 1018.5 1018.5 0.0
17/06:30pm 11.1 8.4 5.6 69 2.5 N 9 11 5 6 1018.5 1018.5 0.0
17/06:00pm 13.2 10.8 5.4 59 3.6 N 7 9 4 5 1018.4 1018.4 0.0
17/05:30pm 15.4 12.2 5.0 50 4.9 NNW 11 17 6 9 1018.3 1018.3 0.0
17/05:00pm 15.8 12.6 5.1 49 5.1 NW 11 19 6 10 1018.3 1018.3 0.0
17/04:30pm 16.2 12.1 4.6 46 5.5 NW 15 20 8 11 1018.4 1018.4 0.0
17/04:00pm 16.8 11.8 3.5 41 6.1 NW 19 26 10 14 1018.5 1018.5 0.0
17/03:30pm 16.7 12.7 4.7 45 5.7 NW 15 20 8 11 1018.7 1018.7 0.0
17/03:00pm 17.8 13.0 4.4 41 6.4 NW 19 30 10 16 1018.8 1018.8 0.0
17/02:30pm 16.6 11.5 4.0 43 5.9 NW 20 28 11 15 1018.9 1018.9 0.0
17/02:00pm 17.4 12.3 4.0 41 6.3 NNW 20 32 11 17 1019.1 1019.1 0.0
17/01:30pm 16.2 11.7 4.3 45 5.6 NW 17 26 9 14 1019.4 1019.4 0.0
17/01:00pm 16.2 12.0 3.9 44 5.7 NNW 15 22 8 12 1019.9 1019.9 0.0
17/12:30pm 15.9 11.4 4.0 45 5.5 NNW 17 22 9 12 1020.3 1020.3 0.0
17/12:00pm 16.7 11.9 4.7 45 5.7 NNW 19 28 10 15 1020.6 1020.6 0.0
17/11:30am 16.4 11.3 4.1 44 5.8 NNW 20 30 11 16 1021.1 1021.1 0.0
17/11:00am 16.1 11.7 4.8 47 5.3 NNW 17 24 9 13 1021.4 1021.4 0.0
17/10:30am 15.3 11.7 6.8 57 4.2 NNW 15 24 8 13 1021.6 1021.6 0.0
17/10:00am 14.3 9.9 6.6 60 3.7 N 19 26 10 14 1021.7 1021.7 0.0
17/09:30am 13.3 8.9 6.6 64 3.2 N 19 24 10 13 1021.7 1021.7 0.0
17/09:00am 11.4 8.0 5.9 69 2.6 N 13 20 7 11 1021.7 1021.7 0.2
17/08:30am 9.7 6.3 6.1 78 1.7 N 13 19 7 10 1021.6 1021.6 0.2
17/08:00am 8.4 5.0 6.0 85 1.1 N 13 17 7 9 1021.4 1021.4 0.2
17/07:30am 6.2 3.4 5.0 92 0.5 ENE 9 11 5 6 1021.2 1021.2 0.2
17/07:00am 5.9 3.5 4.5 91 0.6 ENE 6 7 3 4 1021.1 1021.1 0.2
17/06:30am 6.5 4.1 5.1 91 0.6 ENE 7 9 4 5 1021.1 1021.1 0.2
17/06:00am 6.7 3.2 5.3 91 0.6 N 13 17 7 9 1020.6 1020.6 0.2
17/05:30am 6.6 3.8 5.2 91 0.6 N 9 11 5 6 1020.4 1020.4 0.2
17/05:00am 6.3 3.9 5.1 92 0.5 N 7 11 4 6 1020.3 1020.3 0.2
17/04:30am 4.8 3.4 3.6 92 0.5 CALM 0 0 0 0 1020.2 1020.2 0.2
17/04:00am 4.9 3.1 3.7 92 0.5 NNE 2 6 1 3 1020.1 1020.1 0.2
17/03:30am 5.0 3.3 3.8 92 0.5 N 2 7 1 4 1020.1 1020.1 0.2
17/03:00am 4.4 2.2 3.2 92 0.5 N 4 9 2 5 1020.3 1020.3 0.2
17/02:30am 5.0 2.3 3.7 91 0.5 NNE 7 9 4 5 1020.4 1020.4 0.2
17/02:00am 5.2 2.7 4.0 92 0.5 NE 6 9 3 5 1020.6 1020.6 0.2
17/01:30am 4.9 2.2 3.7 92 0.5 NNE 7 11 4 6 1020.7 1020.7 0.2
17/01:00am 5.0 2.5 3.8 92 0.5 N 6 7 3 4 1021.0 1021.0 0.2
17/12:30am 4.8 2.1 3.5 91 0.5 NE 7 9 4 5 1021.1 1021.1 0.2
17/12:00am 5.9 3.5 4.5 91 0.6 NE 6 9 3 5 1021.1 1021.1 0.2
 
Date/Time
WST
Temp
°C
App
Temp
°C
Dew
Point
°C
Rel
Hum
%
Delta-T
°C
Wind Press
QNH
hPa
Press
MSL
hPa
Rain since
9am
mm
Dir  Spd
km/h
Gust
km/h
Spd
kts
Gust
kts
16/11:30pm 5.4 3.0 4.1 91 0.6 NNE 6 9 3 5 1021.1 1021.1 0.2
16/11:00pm 4.7 2.4 2.9 88 0.7 ENE 4 7 2 4 1021.4 1021.4 0.2
16/10:30pm 6.4 5.2 4.7 89 0.7 CALM 0 0 0 0 1021.5 1021.5 0.2
16/10:00pm 7.4 5.6 5.5 88 0.8 ENE 4 7 2 4 1021.8 1021.8 0.2
16/09:30pm 5.6 3.4 3.4 86 0.9 E 4 7 2 4 1021.7 1021.7 0.2
16/09:00pm 6.5 4.0 4.0 84 1.1 E 6 7 3 4 1021.6 1021.6 0.2
16/08:30pm 6.8 5.5 3.9 82 1.2 CALM 0 7 0 4 1021.6 1021.6 0.2
16/08:00pm 8.4 7.1 4.2 75 1.8 CALM 0 0 0 0 1021.5 1021.5 0.2
16/07:30pm 9.3 7.3 4.5 72 2.1 S 4 7 2 4 1021.2 1021.2 0.2

Other Formats:

Comma delimited format used in spreadsheet applications
http://www.bom.gov.au/fwo/IDW60801/IDW60801.95612.axf

JavaScript Object Notation format (JSON) in row-major order
http://www.bom.gov.au/fwo/IDW60801/IDW60801.95612.json